ETIH

Hohenfels Army Air Field Airport

Germany
METAR ETIH 210356Z AUTO 00000KT 9999 BKN130 BKN160 16/14 A2988 RMK AO2 SLP099 T01580135 $
Observed Flight Rules
Jul-21 @ 03:56 UTC (27 minutes ago) Visual Flight Rules
Visibility Clouds
10,000+ meters
  • Broken at 13,000' AGL
  • Broken at 16,000' AGL
Temperatures Readings
Current 16°C / 61°F
Dewpoint 14°C / 57°F
Humidity 88%
Altimeter 29.88" Hg
Pressure 1009.9 hPa
Elevation 442
METAR ETIH 210356Z AUTO 00000KT 9999 BKN130 BKN160 16/14 A2988 RMK AO2 SLP099 T01580135 $
Observed Flight Rules
Jul-21 @ 03:56 UTC
(27 minutes ago)
VFR
Clouds
  • Broken at 13,000' AGL
  • Broken at 16,000' AGL
Temperature Dewpoint
16°C / 61°F 14°C / 57°F
Humidity Altimeter Pressure
88% 29.88" Hg 1009.9 hPa